Time;durP1;ratioP1;P1;durP2;ratioP2;P2;SDS_P1;SDS_P2;PMS_P1;PMS_P2;Temp;Humidity;BMP_temperature;BMP_pressure;BME280_temperature;BME280_humidity;BME280_pressure;Samples;Min_cycle;Max_cycle;Signal;HPM_P1;HPM_P2
2020/12/10 00:01:05;;;;;;;7.40;1.95;;;;;;;11.20;95.02;98327.22;4826452;29;20443;-81
2020/12/10 00:03:30;;;;;;;3.60;2.10;;;;;;;11.21;95.15;98332.28;4841480;29;20044;-81
2020/12/10 00:05:56;;;;;;;3.97;2.30;;;;;;;11.23;95.58;98336.53;4845014;29;20529;-83
2020/12/10 00:08:21;;;;;;;9.80;2.35;;;;;;;11.26;95.57;98331.38;4845372;29;20094;-80
2020/12/10 00:10:46;;;;;;;5.85;2.17;;;;;;;11.30;95.41;98337.75;4844960;29;20037;-80
2020/12/10 00:13:12;;;;;;;6.47;1.83;;;;;;;11.32;95.49;98330.19;4840629;29;20049;-78
2020/12/10 00:15:37;;;;;;;6.47;2.10;;;;;;;11.36;95.19;98325.03;4826852;29;20026;-78
2020/12/10 00:18:03;;;;;;;3.20;1.77;;;;;;;11.38;95.04;98322.84;4838737;29;20507;-78
2020/12/10 00:20:28;;;;;;;3.13;1.63;;;;;;;11.41;95.02;98321.47;4827839;29;20040;-78
2020/12/10 00:22:53;;;;;;;4.95;2.20;;;;;;;11.42;95.01;98329.19;4826455;29;20030;-78
2020/12/10 00:25:19;;;;;;;4.82;1.80;;;;;;;11.44;94.67;98326.25;4826083;29;20090;-83
2020/12/10 00:27:44;;;;;;;8.55;2.15;;;;;;;11.46;95.09;98327.53;4824775;29;20065;-87
2020/12/10 00:30:10;;;;;;;5.63;1.90;;;;;;;11.49;94.94;98315.41;4826406;29;20030;-84
2020/12/10 00:32:36;;;;;;;3.92;1.90;;;;;;;11.47;94.92;98314.91;4826437;29;20070;-87
2020/12/10 00:35:04;;;;;;;8.93;1.90;;;;;;;11.50;94.92;98319.69;4826187;29;20045;-81
2020/12/10 00:37:33;;;;;;;3.72;1.55;;;;;;;11.52;94.80;98320.16;4826492;29;20108;-84
2020/12/10 00:39:59;;;;;;;5.80;1.77;;;;;;;11.53;94.68;98319.88;4831830;29;20558;-76
2020/12/10 00:42:25;;;;;;;9.25;2.08;;;;;;;11.56;94.85;98302.41;4844634;29;20036;-77
2020/12/10 00:44:50;;;;;;;7.90;2.75;;;;;;;11.60;94.53;98310.63;4842570;29;20026;-84
2020/12/10 00:47:19;;;;;;;11.93;2.33;;;;;;;11.63;94.45;98310.84;4823904;29;20057;-85
2020/12/10 00:49:46;;;;;;;4.32;1.58;;;;;;;11.68;94.57;98308.03;4825775;29;20125;-83
2020/12/10 00:52:12;;;;;;;8.77;2.33;;;;;;;11.73;94.44;98314.38;4826055;29;20090;-79
2020/12/10 00:54:38;;;;;;;6.25;1.98;;;;;;;11.77;93.97;98315.38;4826140;29;20026;-80
2020/12/10 00:57:08;;;;;;;6.88;2.00;;;;;;;11.81;94.11;98303.72;4825900;29;20037;-81
2020/12/10 00:59:33;;;;;;;7.38;2.00;;;;;;;11.86;93.50;98308.19;4839516;29;20033;-79
2020/12/10 01:01:59;;;;;;;6.95;1.65;;;;;;;11.88;93.45;98303.31;4843388;29;20033;-79
2020/12/10 01:04:24;;;;;;;4.97;1.55;;;;;;;11.92;92.79;98304.28;4844353;29;20559;-78
2020/12/10 01:06:50;;;;;;;10.23;2.58;;;;;;;11.98;92.08;98300.44;4843807;29;20540;-78
2020/12/10 01:09:15;;;;;;;16.60;2.20;;;;;;;12.03;91.66;98296.06;4844127;29;20034;-80
2020/12/10 01:11:41;;;;;;;3.97;2.10;;;;;;;12.06;91.82;98288.22;4831321;29;20120;-85
2020/12/10 01:14:06;;;;;;;3.03;1.80;;;;;;;12.11;91.22;98298.03;4825784;29;20182;-86
2020/12/10 01:16:32;;;;;;;6.53;1.88;;;;;;;12.16;90.62;98306.72;4825806;29;20066;-85
2020/12/10 01:18:58;;;;;;;8.23;2.00;;;;;;;12.21;89.67;98308.50;4825275;29;20420;-83
2020/12/10 01:21:28;;;;;;;4.70;1.30;;;;;;;12.28;89.34;98298.13;4825868;29;20076;-88
2020/12/10 01:23:53;;;;;;;6.07;1.45;;;;;;;12.32;89.06;98299.09;4825575;29;20634;-89
2020/12/10 01:26:19;;;;;;;10.07;1.60;;;;;;;12.40;88.93;98302.13;4838742;29;20069;-89
2020/12/10 01:28:44;;;;;;;10.75;2.10;;;;;;;12.45;88.78;98296.66;4843536;29;20041;-85
2020/12/10 01:31:12;;;;;;;5.25;1.75;;;;;;;12.47;88.36;98299.81;4843948;29;20038;-89
2020/12/10 01:33:37;;;;;;;4.40;1.70;;;;;;;12.53;88.16;98289.75;4843572;29;20037;-86
2020/12/10 01:36:03;;;;;;;3.80;1.60;;;;;;;12.55;87.38;98282.19;4828296;29;20048;-86
2020/12/10 01:38:28;;;;;;;4.25;1.63;;;;;;;12.56;87.49;98279.22;4840572;29;20033;-82
2020/12/10 01:40:54;;;;;;;5.13;1.08;;;;;;;12.58;87.07;98271.63;4843613;29;20140;-84
2020/12/10 01:43:19;;;;;;;4.82;1.80;;;;;;;12.60;86.43;98256.03;4835601;29;20389;-83
2020/12/10 01:45:44;;;;;;;8.63;1.95;;;;;;;12.61;86.02;98262.97;4843430;29;20029;-84
2020/12/10 01:48:10;;;;;;;3.35;1.77;;;;;;;12.60;85.62;98261.41;4843710;29;20049;-85
2020/12/10 01:50:35;;;;;;;15.18;1.77;;;;;;;12.62;84.90;98261.88;4843625;29;20038;-85
2020/12/10 01:53:02;;;;;;;6.63;1.38;;;;;;;12.63;85.37;98252.75;4842758;29;20021;-85
2020/12/10 01:55:27;;;;;;;4.78;1.60;;;;;;;12.64;85.25;98256.22;4843417;29;20041;-84
2020/12/10 01:57:53;;;;;;;8.30;1.75;;;;;;;12.64;85.21;98248.16;4838446;29;20060;-85
2020/12/10 02:00:18;;;;;;;8.80;2.33;;;;;;;12.63;85.33;98255.44;4825329;29;20419;-81
2020/12/10 02:02:44;;;;;;;6.65;1.85;;;;;;;12.65;85.13;98233.66;4835457;29;20475;-82
2020/12/10 02:05:09;;;;;;;10.63;2.20;;;;;;;12.64;85.13;98221.34;4843394;29;20090;-84
2020/12/10 02:07:34;;;;;;;3.20;1.00;;;;;;;12.67;84.42;98211.88;4843257;29;20030;-83
2020/12/10 02:10:00;;;;;;;8.98;2.05;;;;;;;12.70;84.66;98213.94;4841749;29;20471;-83
2020/12/10 02:12:25;;;;;;;5.78;1.48;;;;;;;12.70;84.34;98204.00;4838854;29;20037;-83
2020/12/10 02:14:51;;;;;;;10.88;1.67;;;;;;;12.69;84.12;98210.47;4843036;29;20040;-84
2020/12/10 02:17:16;;;;;;;15.68;4.50;;;;;;;12.71;83.58;98224.38;4843126;29;20468;-82
2020/12/10 02:19:41;;;;;;;12.90;2.28;;;;;;;12.72;82.54;98228.63;4843114;29;20029;-82
2020/12/10 02:22:07;;;;;;;9.32;2.25;;;;;;;12.76;82.17;98224.22;4842866;29;20029;-80
2020/12/10 02:24:32;;;;;;;3.95;1.13;;;;;;;12.81;81.49;98242.84;4859395;29;20038;-82
2020/12/10 02:26:58;;;;;;;9.75;1.60;;;;;;;12.85;81.72;98247.63;4835089;29;20492;-82
2020/12/10 02:29:23;;;;;;;6.55;1.23;;;;;;;12.88;81.65;98255.06;4824518;29;20034;-83
2020/12/10 02:31:49;;;;;;;2.13;0.80;;;;;;;12.89;81.18;98257.41;4826907;29;20052;-89
2020/12/10 02:34:15;;;;;;;7.00;1.65;;;;;;;12.93;81.54;98252.22;4842854;29;20037;-83
2020/12/10 02:36:43;;;;;;;9.60;1.55;;;;;;;12.95;81.40;98266.09;4842877;29;20038;-80
2020/12/10 02:39:08;;;;;;;7.90;1.73;;;;;;;12.93;81.57;98250.31;4842526;29;20040;-79
2020/12/10 02:41:35;;;;;;;7.07;1.55;;;;;;;12.92;80.97;98246.06;4842765;29;20415;-80
2020/12/10 02:44:01;;;;;;;2.85;1.50;;;;;;;12.93;80.96;98244.19;4841899;29;20102;-83
2020/12/10 02:46:26;;;;;;;5.43;1.00;;;;;;;12.92;80.86;98240.69;4841961;29;20044;-81
2020/12/10 02:48:52;;;;;;;6.00;1.27;;;;;;;12.91;80.74;98231.03;4842511;29;20033;-85
2020/12/10 02:51:17;;;;;;;7.45;1.60;;;;;;;12.87;80.63;98216.69;4842632;29;20129;-81
2020/12/10 02:53:43;;;;;;;3.30;0.88;;;;;;;12.86;80.23;98222.38;4842577;29;20041;-79
2020/12/10 02:56:10;;;;;;;3.38;1.17;;;;;;;12.82;80.03;98211.47;4842159;29;20034;-81
2020/12/10 02:58:39;;;;;;;4.57;0.85;;;;;;;12.83;79.65;98207.69;4837374;29;20037;-85
2020/12/10 03:01:09;;;;;;;4.10;1.50;;;;;;;12.83;79.54;98202.31;4824076;29;20030;-83
2020/12/10 03:03:35;;;;;;;6.13;1.05;;;;;;;12.79;78.96;98190.59;4835764;29;20037;-85
2020/12/10 03:06:03;;;;;;;7.10;0.95;;;;;;;12.83;78.22;98202.31;4842162;29;20112;-86
2020/12/10 03:08:29;;;;;;;4.30;1.05;;;;;;;12.85;77.71;98181.31;4842222;29;20035;-87
2020/12/10 03:10:54;;;;;;;1.55;0.95;;;;;;;12.87;77.41;98173.75;4840576;29;20033;-84
2020/12/10 03:13:21;;;;;;;4.38;1.35;;;;;;;12.89;77.56;98173.44;4831979;29;20124;-90
2020/12/10 03:15:47;;;;;;;3.40;1.35;;;;;;;12.90;76.85;98185.75;4824180;29;20026;-89
2020/12/10 03:18:12;;;;;;;9.75;1.30;;;;;;;12.90;76.87;98178.50;4824102;29;20048;-87
2020/12/10 03:20:38;;;;;;;2.30;0.73;;;;;;;12.92;76.34;98203.13;4823801;29;20033;-88
2020/12/10 03:23:04;;;;;;;2.45;0.77;;;;;;;12.90;75.98;98189.25;4833587;29;20037;-92
2020/12/10 03:25:30;;;;;;;4.05;1.33;;;;;;;12.95;75.69;98197.13;4842627;29;20419;-89
2020/12/10 03:27:55;;;;;;;1.98;0.68;;;;;;;12.97;75.73;98211.03;4827850;29;20034;-89
2020/12/10 03:30:21;;;;;;;2.70;0.57;;;;;;;13.00;75.51;98225.72;4826843;29;20090;-86
2020/12/10 03:32:47;;;;;;;1.27;0.73;;;;;;;12.97;75.51;98227.16;4823524;29;20026;-87
2020/12/10 03:35:12;;;;;;;3.75;0.95;;;;;;;13.01;75.22;98229.19;4823717;29;20040;-84
2020/12/10 03:37:37;;;;;;;2.17;1.02;;;;;;;13.02;75.29;98233.47;4823889;29;20069;-84
2020/12/10 03:40:04;;;;;;;6.60;1.40;;;;;;;13.02;74.91;98239.59;4823648;29;20030;-84
2020/12/10 03:42:29;;;;;;;3.42;1.00;;;;;;;13.04;74.64;98245.47;4831670;29;20207;-85
2020/12/10 03:44:55;;;;;;;3.35;0.90;;;;;;;13.04;75.02;98242.00;4824693;29;20128;-85
2020/12/10 03:47:20;;;;;;;4.97;0.82;;;;;;;13.06;74.62;98247.81;4823752;29;20086;-84
2020/12/10 03:49:45;;;;;;;5.25;0.90;;;;;;;13.06;73.75;98251.31;4823743;29;20040;-85
2020/12/10 03:52:11;;;;;;;1.92;0.98;;;;;;;13.07;73.56;98239.47;4823542;29;20115;-88
2020/12/10 03:54:36;;;;;;;2.05;0.77;;;;;;;13.08;72.65;98240.25;4823724;29;20038;-88
2020/12/10 03:57:02;;;;;;;2.85;0.73;;;;;;;13.08;72.96;98227.63;4827979;29;20038;-86
2020/12/10 03:59:28;;;;;;;3.47;0.90;;;;;;;13.08;71.97;98240.25;4838580;29;20093;-85
2020/12/10 04:01:55;;;;;;;2.38;1.40;;;;;;;13.07;72.67;98236.81;4823333;29;20045;-86
2020/12/10 04:04:20;;;;;;;6.97;1.15;;;;;;;13.07;72.12;98236.81;4823626;29;20384;-84
2020/12/10 04:06:46;;;;;;;3.25;1.23;;;;;;;13.06;72.27;98237.09;4823555;29;20037;-85
2020/12/10 04:09:11;;;;;;;5.90;1.15;;;;;;;13.01;72.59;98235.38;4823351;29;20053;-86
2020/12/10 04:11:37;;;;;;;6.80;2.05;;;;;;;12.99;72.72;98240.25;4837127;29;20033;-86
2020/12/10 04:14:03;;;;;;;2.13;1.17;;;;;;;12.95;72.83;98240.06;4840946;29;20057;-81
2020/12/10 04:16:28;;;;;;;6.07;1.20;;;;;;;12.94;72.62;98237.72;4841809;29;20528;-81
2020/12/10 04:18:54;;;;;;;4.00;0.80;;;;;;;12.93;72.88;98244.94;4836153;29;20044;-80
2020/12/10 04:21:19;;;;;;;12.38;2.58;;;;;;;12.91;72.77;98241.00;4823477;29;20022;-83
2020/12/10 04:23:44;;;;;;;8.85;2.05;;;;;;;12.91;73.46;98251.75;4823135;29;20518;-82
2020/12/10 04:26:14;;;;;;;8.13;2.08;;;;;;;12.89;74.17;98248.56;4823258;29;20109;-85
2020/12/10 04:28:39;;;;;;;6.72;2.50;;;;;;;12.87;74.34;98245.41;4830075;29;20041;-87
2020/12/10 04:31:04;;;;;;;5.55;1.45;;;;;;;12.88;74.22;98250.47;4841378;29;20112;-85
2020/12/10 04:33:30;;;;;;;2.28;1.20;;;;;;;12.87;74.54;98240.84;4842282;29;20101;-96
2020/12/10 04:35:55;;;;;;;3.80;0.98;;;;;;;12.85;74.94;98226.94;4843515;29;20056;-90
2020/12/10 04:38:21;;;;;;;3.55;1.25;;;;;;;12.84;75.43;98240.66;4845679;29;20057;-93
2020/12/10 04:40:47;;;;;;;1.33;1.20;;;;;;;12.81;75.32;98247.44;4845129;29;20030;-87
2020/12/10 04:43:13;;;;;;;4.22;1.50;;;;;;;12.78;75.26;98248.03;4843496;29;20042;-84
2020/12/10 04:45:39;;;;;;;2.47;1.10;;;;;;;12.71;75.45;98239.69;4826439;29;20030;-88
2020/12/10 04:48:05;;;;;;;3.15;1.27;;;;;;;12.70;75.63;98230.03;4826127;29;20045;-87
2020/12/10 04:50:33;;;;;;;4.90;1.50;;;;;;;12.68;75.73;98226.88;4826245;29;20168;-88
2020/12/10 04:52:58;;;;;;;3.35;0.90;;;;;;;12.63;75.48;98235.84;4826045;29;20038;-88
2020/12/10 04:55:25;;;;;;;3.13;0.80;;;;;;;12.61;75.75;98241.53;4833221;29;20046;-87
2020/12/10 04:57:52;;;;;;;1.00;0.63;;;;;;;12.58;75.65;98236.75;4825358;29;20126;-84
2020/12/10 05:00:19;;;;;;;5.17;0.80;;;;;;;12.56;75.99;98230.94;4826040;29;20037;-85
2020/12/10 05:02:47;;;;;;;3.60;1.27;;;;;;;12.52;75.76;98229.19;4835554;29;20036;-84
2020/12/10 05:05:33;;;;;;;2.83;0.90;;;;;;;12.51;76.03;98243.69;4844159;29;20068;-87
2020/12/10 05:08:00;;;;;;;4.45;1.17;;;;;;;12.46;75.87;98240.03;4844219;29;20105;-86
2020/12/10 05:10:27;;;;;;;2.93;1.10;;;;;;;12.45;76.36;98235.78;4843642;29;20033;-86
2020/12/10 05:13:10;;;;;;;4.55;1.08;;;;;;;12.43;77.00;98246.00;4843874;29;20038;-87
2020/12/10 05:15:37;;;;;;;4.45;1.55;;;;;;;12.41;76.84;98248.19;4807823;29;20045;-89
2020/12/10 05:18:13;;;;;;;2.35;1.00;;;;;;;12.34;77.53;98247.88;4807640;29;20038;-88
2020/12/10 05:20:57;;;;;;;1.33;0.88;;;;;;;12.31;78.07;98249.25;4807670;29;20117;-87
2020/12/10 05:23:37;;;;;;;2.13;0.95;;;;;;;12.27;78.99;98248.28;4807712;29;20026;-86
2020/12/10 05:26:04;;;;;;;1.13;0.93;;;;;;;12.20;79.37;98250.59;4818882;29;20037;-84
2020/12/10 05:28:49;;;;;;;9.98;3.05;;;;;;;12.13;79.80;98252.94;4826343;29;20625;-82
2020/12/10 05:31:18;;;;;;;3.47;1.73;;;;;;;12.09;80.15;98271.50;4825277;29;20090;-84
2020/12/10 05:33:57;;;;;;;3.63;1.95;;;;;;;12.06;79.92;98269.44;4841516;29;20576;-87
2020/12/10 05:36:25;;;;;;;3.70;1.60;;;;;;;12.03;80.76;98288.81;4843802;29;20038;-85
2020/12/10 05:39:08;;;;;;;5.07;2.10;;;;;;;11.97;81.11;98288.16;4827176;29;20038;-84
2020/12/10 05:41:38;;;;;;;3.72;2.08;;;;;;;11.93;81.63;98289.81;4825510;29;20073;-85
2020/12/10 05:44:17;;;;;;;8.90;2.58;;;;;;;11.91;81.65;98299.25;4823628;29;20033;-80
2020/12/10 05:46:44;;;;;;;5.93;2.72;;;;;;;11.88;82.03;98291.78;4820737;29;20050;-86
2020/12/10 05:49:14;;;;;;;3.20;2.22;;;;;;;11.82;82.89;98283.88;4843606;29;20034;-81
2020/12/10 05:51:49;;;;;;;3.28;1.60;;;;;;;11.80;82.83;98312.06;4846778;29;20061;-82
2020/12/10 05:54:19;;;;;;;2.60;1.73;;;;;;;11.74;83.06;98298.00;4841148;29;20094;-83
2020/12/10 05:56:50;;;;;;;5.22;2.38;;;;;;;11.73;82.95;98300.97;4824804;29;20118;-84
2020/12/10 05:59:17;;;;;;;4.00;2.00;;;;;;;11.67;83.75;98294.97;4824970;29;20121;-85
2020/12/10 06:01:43;;;;;;;7.50;2.30;;;;;;;11.63;84.55;98297.44;4825196;29;20542;-84
2020/12/10 06:04:13;;;;;;;7.65;3.20;;;;;;;11.60;84.27;98294.56;4824608;29;20116;-83
2020/12/10 06:06:38;;;;;;;7.15;3.35;;;;;;;11.57;84.58;98290.63;4824986;29;20117;-84
2020/12/10 06:09:05;;;;;;;7.15;4.30;;;;;;;11.53;84.86;98297.66;4824942;29;20493;-87
2020/12/10 06:11:32;;;;;;;7.78;3.60;;;;;;;11.50;85.36;98298.25;4828224;29;20034;-87
2020/12/10 06:14:05;;;;;;;7.63;3.60;;;;;;;11.47;85.20;98302.31;4824339;29;20116;-83
2020/12/10 06:16:32;;;;;;;10.60;4.57;;;;;;;11.46;85.63;98311.47;4836004;29;20467;-83
2020/12/10 06:19:04;;;;;;;7.72;4.90;;;;;;;11.43;85.82;98314.72;4848275;29;20106;-83
2020/12/10 06:21:42;;;;;;;14.77;5.72;;;;;;;11.43;86.59;98313.94;4824759;29;20099;-83
2020/12/10 06:24:26;;;;;;;8.23;4.45;;;;;;;11.40;86.71;98298.47;4835243;29;20033;-81
2020/12/10 06:26:56;;;;;;;7.80;5.03;;;;;;;11.39;86.85;98303.03;4832307;29;20034;-86
2020/12/10 06:29:26;;;;;;;6.55;3.25;;;;;;;11.38;86.65;98296.88;4828077;29;20045;-90
2020/12/10 06:32:10;;;;;;;9.38;3.85;;;;;;;11.34;87.27;98290.53;4842924;29;20033;-86
2020/12/10 06:34:47;;;;;;;5.40;3.88;;;;;;;11.35;87.38;98294.00;4842891;29;20029;-86
2020/12/10 06:37:21;;;;;;;7.35;4.15;;;;;;;11.34;87.60;98293.22;4842671;29;20074;-86
2020/12/10 06:39:49;;;;;;;4.47;4.03;;;;;;;11.33;87.34;98294.31;4842070;29;20040;-86
2020/12/10 06:42:15;;;;;;;9.32;5.20;;;;;;;11.34;88.02;98303.94;4836342;29;20090;-81
2020/12/10 06:44:40;;;;;;;12.02;4.15;;;;;;;11.33;88.08;98305.00;4824091;29;20462;-87
2020/12/10 06:47:06;;;;;;;10.38;4.68;;;;;;;11.34;87.98;98308.50;4805971;29;20072;-90
2020/12/10 06:49:35;;;;;;;9.25;5.10;;;;;;;11.33;88.39;98307.69;4806476;29;20034;-87
2020/12/10 06:52:14;;;;;;;9.95;4.32;;;;;;;11.34;88.52;98319.22;4806410;29;20026;-88
2020/12/10 06:55:05;;;;;;;10.43;5.63;;;;;;;11.34;88.82;98328.00;4824776;29;20037;-89
2020/12/10 06:57:53;;;;;;;10.63;4.85;;;;;;;11.34;88.98;98321.88;4841654;29;20475;-89
2020/12/10 07:00:35;;;;;;;;;;;;;;;11.35;89.78;98318.09;4843115;29;20083;-88
2020/12/10 07:03:24;;;;;;;5.90;3.40;;;;;;;11.34;89.53;98327.25;4842275;29;19919;-89
2020/12/10 07:05:50;;;;;;;7.80;3.20;;;;;;;11.34;89.09;98319.22;4838002;29;20438;-90
2020/12/10 07:08:18;;;;;;;9.05;3.45;;;;;;;11.36;89.40;98317.81;4842700;29;20029;-91
2020/12/10 07:10:50;;;;;;;6.13;3.53;;;;;;;11.35;89.05;98310.88;4843208;29;20411;-89
2020/12/10 07:13:29;;;;;;;9.38;4.47;;;;;;;11.37;88.85;98305.22;4824284;29;20030;-87
2020/12/10 07:15:54;;;;;;;8.27;3.60;;;;;;;11.37;88.89;98316.69;4824669;29;20049;-90
2020/12/10 07:18:20;;;;;;;5.75;3.67;;;;;;;11.40;88.87;98309.97;4824638;29;20506;-91
2020/12/10 07:20:45;;;;;;;7.95;4.63;;;;;;;11.41;88.51;98305.41;4827608;29;20033;-85
2020/12/10 07:23:11;;;;;;;8.75;5.05;;;;;;;11.43;88.54;98311.25;4829879;29;20607;-85
2020/12/10 07:25:36;;;;;;;13.10;7.70;;;;;;;11.43;88.11;98304.00;4821757;29;20038;-85
2020/12/10 07:28:02;;;;;;;11.75;6.10;;;;;;;11.44;88.35;98289.53;4822062;29;20029;-84
2020/12/10 07:30:30;;;;;;;12.10;5.43;;;;;;;11.47;88.45;98301.53;4822658;29;20034;-84
2020/12/10 07:32:58;;;;;;;8.75;4.28;;;;;;;11.47;87.84;98304.97;4822403;29;20094;-86
2020/12/10 07:35:27;;;;;;;17.88;6.15;;;;;;;11.49;87.69;98302.03;4818653;29;20045;-92
2020/12/10 07:37:53;;;;;;;10.40;6.93;;;;;;;11.49;87.80;98297.44;4830847;29;20061;-89
2020/12/10 07:40:19;;;;;;;14.85;6.50;;;;;;;11.50;87.65;98292.91;4823420;29;20085;-87
2020/12/10 07:42:44;;;;;;;6.70;4.90;;;;;;;11.52;87.84;98296.88;4823217;29;20030;-87
2020/12/10 07:45:19;;;;;;;10.50;5.30;;;;;;;11.52;87.96;98296.06;4825819;29;20045;-88
2020/12/10 07:47:55;;;;;;;6.38;4.72;;;;;;;11.52;87.47;98288.84;4808403;29;20022;-90
2020/12/10 07:50:23;;;;;;;11.13;4.93;;;;;;;11.53;87.36;98285.06;4826236;29;20495;-87
2020/12/10 07:52:50;;;;;;;7.18;3.85;;;;;;;11.55;87.11;98284.75;4839282;29;20030;-89
2020/12/10 07:55:20;;;;;;;3.20;2.50;;;;;;;11.53;87.30;98285.06;4811361;29;20520;-89
2020/12/10 07:57:54;;;;;;;6.60;3.05;;;;;;;11.52;87.30;98288.84;4832000;29;20033;-90
2020/12/10 08:00:24;;;;;;;4.82;2.90;;;;;;;11.51;86.79;98287.25;4815678;29;20033;-88
2020/12/10 08:02:58;;;;;;;2.63;2.22;;;;;;;11.51;85.95;98305.19;4815161;29;20045;-87
2020/12/10 08:05:24;;;;;;;4.45;3.30;;;;;;;11.52;85.77;98304.09;4821144;29;20093;-85
2020/12/10 08:07:52;;;;;;;8.93;3.13;;;;;;;11.50;85.55;98291.00;4823000;29;20129;-88
2020/12/10 08:10:34;;;;;;;8.88;3.72;;;;;;;11.52;85.06;98294.19;4822619;29;20121;-90
2020/12/10 08:13:07;;;;;;;7.18;4.25;;;;;;;11.53;85.48;98293.09;4826423;29;20030;-89
2020/12/10 08:15:33;;;;;;;9.63;4.75;;;;;;;11.55;85.37;98290.13;4822191;29;20038;-89
2020/12/10 08:18:07;;;;;;;9.05;4.25;;;;;;;11.58;85.47;98291.41;4808055;29;20039;-87
2020/12/10 08:20:36;;;;;;;5.60;3.22;;;;;;;11.59;85.24;98288.41;4810351;29;20045;-85
2020/12/10 08:23:01;;;;;;;8.27;3.53;;;;;;;11.60;85.00;98283.84;4825350;29;20030;-85
2020/12/10 08:25:27;;;;;;;14.50;7.85;;;;;;;11.63;85.06;98293.97;4825587;29;20080;-85
2020/12/10 08:27:52;;;;;;;8.27;5.20;;;;;;;11.67;84.88;98300.31;4826006;29;20486;-85
2020/12/10 08:30:18;;;;;;;10.95;5.90;;;;;;;11.72;84.87;98304.75;4826174;29;20046;-88
2020/12/10 08:32:53;;;;;;;7.90;4.50;;;;;;;11.71;84.75;98297.81;4825443;29;20041;-85
2020/12/10 08:35:19;;;;;;;10.63;5.90;;;;;;;11.74;84.88;98299.88;4825648;29;20670;-87
2020/12/10 08:37:46;;;;;;;13.27;6.45;;;;;;;11.75;84.99;98288.84;4825809;29;20183;-88
2020/12/10 08:40:12;;;;;;;11.35;5.30;;;;;;;11.77;84.91;98291.25;4825411;29;20105;-87
2020/12/10 08:42:38;;;;;;;8.70;5.18;;;;;;;11.77;84.70;98293.94;4825679;29;20044;-88
2020/12/10 09:00:44;;;;;;;7.63;4.30;;;;;;;11.94;85.62;98295.97;5102187;27;780011;-82
2020/12/10 09:03:09;;;;;;;6.68;4.13;;;;;;;11.97;85.85;98300.75;5126482;28;20039;-83
2020/12/10 09:05:35;;;;;;;9.38;4.82;;;;;;;11.99;85.60;98293.19;5120860;28;20020;-83
2020/12/10 09:08:00;;;;;;;9.73;5.15;;;;;;;12.01;86.10;98288.31;5106248;28;20031;-83
2020/12/10 09:10:28;;;;;;;12.57;5.13;;;;;;;12.03;86.28;98296.84;5094453;28;20036;-82
2020/12/10 09:12:55;;;;;;;9.80;6.55;;;;;;;12.05;86.24;98302.69;5088459;28;20060;-81
2020/12/10 09:15:21;;;;;;;9.95;5.90;;;;;;;12.08;85.67;98298.63;5089911;28;20028;-83
2020/12/10 09:17:46;;;;;;;10.73;5.97;;;;;;;12.08;86.42;98296.72;5098143;28;20070;-85
2020/12/10 09:20:12;;;;;;;9.32;6.68;;;;;;;12.10;86.32;98296.44;5106229;28;20055;-86
2020/12/10 09:22:37;;;;;;;14.70;7.03;;;;;;;12.11;86.40;98301.47;5097161;28;20027;-82
2020/12/10 09:25:03;;;;;;;15.77;11.32;;;;;;;12.14;86.71;98290.13;5095285;28;20028;-84
2020/12/10 09:27:28;;;;;;;10.88;5.55;;;;;;;12.16;86.18;98279.91;5085453;28;20067;-83
2020/12/10 09:29:54;;;;;;;8.38;5.03;;;;;;;12.18;85.86;98260.84;5085754;28;20027;-84
2020/12/10 09:32:19;;;;;;;9.73;6.05;;;;;;;12.19;85.84;98278.50;5084950;28;20036;-85
2020/12/10 09:34:45;;;;;;;6.82;5.03;;;;;;;12.19;85.92;98286.56;5091980;28;20059;-86
2020/12/10 09:37:10;;;;;;;9.07;5.47;;;;;;;12.20;85.83;98273.94;5105741;28;20088;-83
2020/12/10 09:39:36;;;;;;;7.90;5.30;;;;;;;12.23;85.57;98281.38;5105632;28;20031;-88
2020/12/10 09:42:03;;;;;;;7.60;5.10;;;;;;;12.22;85.92;98283.28;5106011;28;20036;-87
2020/12/10 09:44:29;;;;;;;10.38;3.88;;;;;;;12.22;85.62;98283.28;5105659;28;20032;-85
2020/12/10 09:46:54;;;;;;;6.97;4.00;;;;;;;12.21;85.72;98279.00;5105413;28;20030;-84
2020/12/10 09:49:20;;;;;;;6.18;3.83;;;;;;;12.24;85.61;98274.91;5104491;28;20113;-87
2020/12/10 09:51:56;;;;;;;6.13;3.75;;;;;;;12.20;85.73;98273.94;5085206;28;20476;-85
2020/12/10 09:59:29;;;;;;;5.82;3.22;;;;;;;12.20;85.20;98272.06;5105572;28;20534;-79
2020/12/10 10:01:55;;;;;;;4.37;3.93;;;;;;;12.20;85.11;98274.72;5090872;28;20036;-80
2020/12/10 10:04:20;;;;;;;4.65;3.10;;;;;;;12.20;84.60;98277.41;5074628;28;20048;-81
2020/12/10 10:06:48;;;;;;;3.97;3.15;;;;;;;12.17;84.33;98272.69;5075828;28;20074;-82
2020/12/10 10:09:14;;;;;;;5.53;2.25;;;;;;;12.14;83.99;98290.13;5078528;28;20029;-82
2020/12/10 10:11:39;;;;;;;6.78;3.53;;;;;;;12.14;84.11;98278.63;5090119;28;20038;-80
2020/12/10 10:14:05;;;;;;;4.65;3.13;;;;;;;12.12;84.05;98265.56;5091533;28;20028;-81
2020/12/10 10:16:31;;;;;;;8.70;4.13;;;;;;;12.12;83.81;98262.88;5090489;28;20024;-82
2020/12/10 10:18:58;;;;;;;5.95;4.28;;;;;;;12.10;83.54;98262.38;5105268;28;20032;-82
2020/12/10 10:21:26;;;;;;;6.35;3.72;;;;;;;12.09;83.52;98260.00;5104924;28;20032;-84
2020/12/10 10:23:52;;;;;;;6.65;3.90;;;;;;;12.09;83.00;98263.47;5107358;28;20093;-84
2020/12/10 10:26:17;;;;;;;10.88;7.50;;;;;;;12.09;83.43;98274.19;5089287;28;20037;-85
2020/12/10 10:28:45;;;;;;;10.68;7.97;;;;;;;12.09;83.63;98266.16;5077274;28;20024;-84
2020/12/10 10:31:10;;;;;;;5.10;3.53;;;;;;;12.10;83.63;98262.38;5083584;28;20032;-85
2020/12/10 10:33:36;;;;;;;5.63;4.00;;;;;;;12.11;83.41;98249.78;5072777;28;20550;-85
2020/12/10 10:36:02;;;;;;;9.80;4.10;;;;;;;12.10;83.47;98257.00;5104612;28;20120;-85
2020/12/10 10:38:28;;;;;;;11.25;4.68;;;;;;;12.12;83.07;98254.81;5070281;28;20032;-86
2020/12/10 10:40:57;;;;;;;7.38;3.63;;;;;;;12.10;82.92;98254.34;5082491;28;20032;-87
2020/12/10 10:43:22;;;;;;;6.75;4.63;;;;;;;12.10;83.13;98246.28;5091058;28;20385;-80
2020/12/10 10:45:48;;;;;;;5.60;3.58;;;;;;;12.07;82.42;98235.38;5091809;28;20027;-82
2020/12/10 10:48:13;;;;;;;4.95;2.90;;;;;;;12.06;82.32;98242.66;5091394;28;20039;-81
2020/12/10 10:50:38;;;;;;;7.97;4.45;;;;;;;12.04;82.25;98242.16;5091778;28;20024;-86
2020/12/10 10:53:04;;;;;;;8.98;3.25;;;;;;;11.99;80.79;98242.28;5091486;28;20032;-86
2020/12/10 10:55:30;;;;;;;5.55;2.70;;;;;;;11.96;80.36;98227.63;5091180;28;20152;-85
2020/12/10 10:57:55;;;;;;;5.40;2.78;;;;;;;11.93;80.70;98241.56;5091332;28;20024;-85
2020/12/10 11:00:21;;;;;;;2.20;1.30;;;;;;;11.83;79.95;98231.88;5082519;28;20126;-86
2020/12/10 11:02:46;;;;;;;7.20;3.05;;;;;;;11.81;80.49;98226.03;5071602;28;20385;-87
2020/12/10 11:05:12;;;;;;;3.45;2.20;;;;;;;11.79;80.28;98227.44;5081456;28;20403;-88
2020/12/10 11:07:39;;;;;;;6.63;3.72;;;;;;;11.76;80.92;98215.44;5110832;28;20057;-85
2020/12/10 11:10:05;;;;;;;10.10;5.18;;;;;;;11.73;81.15;98218.75;5092226;28;20509;-85
2020/12/10 11:12:31;;;;;;;33.30;13.98;;;;;;;11.71;80.37;98212.91;5089496;28;20120;-85
2020/12/10 11:14:56;;;;;;;26.45;8.45;;;;;;;11.74;80.44;98206.13;5107861;28;20032;-83
2020/12/10 11:17:21;;;;;;;30.52;10.75;;;;;;;11.72;80.50;98202.97;5089573;28;20075;-85
2020/12/10 11:19:47;;;;;;;27.33;11.27;;;;;;;11.66;80.21;98210.34;5090489;28;20127;-84
2020/12/10 11:22:12;;;;;;;35.20;15.07;;;;;;;11.68;80.25;98218.84;5090038;28;20031;-84
2020/12/10 11:24:41;;;;;;;26.92;13.40;;;;;;;11.70;80.44;98213.97;5089775;28;20028;-83
2020/12/10 11:27:06;;;;;;;20.48;9.73;;;;;;;11.69;80.04;98199.00;5073647;28;20119;-84
2020/12/10 11:29:32;;;;;;;20.45;10.55;;;;;;;11.69;79.96;98193.66;5069674;28;20197;-85
2020/12/10 11:31:57;;;;;;;16.10;9.15;;;;;;;11.68;80.59;98186.72;5069365;28;20067;-83
2020/12/10 11:34:23;;;;;;;11.80;6.20;;;;;;;11.70;80.73;98184.53;5069616;28;20033;-89
2020/12/10 11:36:48;;;;;;;11.77;6.43;;;;;;;11.69;80.55;98178.38;5069907;28;20028;-87
2020/12/10 11:39:14;;;;;;;8.13;4.07;;;;;;;11.70;79.96;98171.13;5071778;28;20534;-85
2020/12/10 11:41:39;;;;;;;7.50;3.65;;;;;;;11.73;80.13;98167.84;5090018;28;20028;-86
2020/12/10 11:44:05;;;;;;;4.30;3.08;;;;;;;11.77;79.93;98165.38;5083859;28;20036;-86
2020/12/10 11:46:30;;;;;;;3.90;3.40;;;;;;;11.78;80.27;98151.66;5096351;28;20039;-80
2020/12/10 11:48:56;;;;;;;8.70;3.65;;;;;;;11.80;79.78;98135.25;5095459;28;20024;-80
2020/12/10 11:51:21;;;;;;;5.15;2.78;;;;;;;11.81;79.48;98118.88;5082324;28;20025;-83
2020/12/10 11:53:49;;;;;;;3.35;2.97;;;;;;;11.81;79.38;98102.81;5086396;28;20469;-80